首页
METAR-TAF:

METAR-TAF

机场 :

Dare County Regional Airport

Manteo, 北卡罗来纳州, 美国

纬度: 35-55N, 经度: 075-42W, 海拔: 4米

当前天气观测

该预报发布于14分钟前的15:55 UTC
风速11节,风向,有时为20节阵风
温度 0°C
湿度 64%
气压 1027 hPa
能見度: 16.1公里
散云层高于2300英尺
阴天层高于3300英尺

METAR: KMQI 201555Z AUTO 36011G20KT 10SM SCT023 OVC033 00/M06 A3032 RMK AO2 T10031057

时间: 11:09 (16:09 UTC)


TAF: 丢失

超过4000个机场的气象观测和天气预报(METAR&TAF报告)。

可查询的气象台以黄色和红色小点在地图上表示。

将鼠标移到小点上方,可查看气象台名称。

然后点击查看天气观测和预报。

如需切换地图:点击带黑十字的绿色按钮放大地图;点击带横线的绿色按钮缩小地图;或者点击绿色箭头查看邻近地区的地图。


METAR-TAF: